Poseidon — SVA6091 — position and weather

sailwx.info

Track history (hours):
 
Tides and Currents Weather Stations Pressure Air Temp Water Temp Dewpoint Dewpoint Depression Visibility Wind Speed Wind Dir Waves Ship Positions

Poseidon

Last reported at 2017-Oct-18 08:11 UTC. Time now 2017-Oct-19 22:01 UTC.
Position N 37°57' E 023°37'.

Length 35 m; draft 3.5 m.

Type: Tanker. MMSI: 239869900.

Date/timePositionNaut miles runAvg speedWind from/ knotsBaromVisibWave heightAir tempDewpointWater temp
2017-Oct-18 08:11N 37°57' E 023°37'1 3.0
2017-Oct-18 08:00N 37°57' E 023°36'4 8.0
2017-Oct-18 07:30N 37°54' E 023°33'2 4.1
2017-Oct-18 07:00N 37°52' E 023°32'3 5.4
2017-Oct-18 06:30N 37°55' E 023°34'4 7.5
2017-Oct-18 06:00N 37°57' E 023°37'  
2017-Oct-14 09:10N 37°57' E 023°37'0 2.3
2017-Oct-14 09:00N 37°57' E 023°36'4 7.6
2017-Oct-14 08:30N 37°54' E 023°34'4 7.8
2017-Oct-14 08:00N 37°51' E 023°31'0 0.7
2017-Oct-14 07:30N 37°50' E 023°31'0 0.0
2017-Oct-14 07:00N 37°50' E 023°31'0 0.0
2017-Oct-14 06:30N 37°50' E 023°31'0 0.8
2017-Oct-14 06:00N 37°51' E 023°31'4 8.2
2017-Oct-14 05:30N 37°54' E 023°34'4 7.6
2017-Oct-14 05:00N 37°57' E 023°37'0 0.0
2017-Oct-13 07:49N 37°57' E 023°37'0 0.0
2017-Oct-13 06:43N 37°57' E 023°37'0 0.0
2017-Oct-13 06:30N 37°57' E 023°37'0 0.0
2017-Oct-12 13:14N 37°57' E 023°37'1 4.7
2017-Oct-12 13:00N 37°57' E 023°35'4 8.4
2017-Oct-12 12:30N 37°54' E 023°32'2 4.6
2017-Oct-12 12:00N 37°52' E 023°30'0 0.0
2017-Oct-12 11:30N 37°52' E 023°30'0 0.2
2017-Oct-12 11:00N 37°52' E 023°30'0 0.4
2017-Oct-12 10:30N 37°52' E 023°29'0 0.2
2017-Oct-12 10:00N 37°52' E 023°30'1 2.4
2017-Oct-12 09:30N 37°52' E 023°31'1 2.5
2017-Oct-12 09:00N 37°53' E 023°32'4 7.2
2017-Oct-12 08:30N 37°56' E 023°35'2 4.0
2017-Oct-12 08:00N 37°57' E 023°37'0 0.0
2017-Oct-10 06:37N 37°57' E 023°37'0 0.0
2017-Oct-10 06:31N 37°57' E 023°37'0 0.0
2017-Oct-10 06:01N 37°57' E 023°37'  
Track history (hours):
 
Tides and Currents Weather Stations Pressure Air Temp Water Temp Dewpoint Dewpoint Depression Visibility Wind Speed Wind Dir Waves Ship Positions

Poseidon

Last reported at 2017-Oct-18 08:11 UTC. Time now 2017-Oct-19 22:01 UTC.
Position N 37°57' E 023°37'.

Length 35 m; draft 3.5 m.

Type: Tanker. MMSI: 239869900.

Date/timePositionNaut miles runAvg speedWind from/ knotsBaromVisibWave heightAir tempDewpointWater temp
2017-Oct-18 08:11N 37°57' E 023°37'1 3.0
2017-Oct-18 08:00N 37°57' E 023°36'4 8.0
2017-Oct-18 07:30N 37°54' E 023°33'2 4.1
2017-Oct-18 07:00N 37°52' E 023°32'3 5.4
2017-Oct-18 06:30N 37°55' E 023°34'4 7.5
2017-Oct-18 06:00N 37°57' E 023°37'  
2017-Oct-14 09:10N 37°57' E 023°37'0 2.3
2017-Oct-14 09:00N 37°57' E 023°36'4 7.6
2017-Oct-14 08:30N 37°54' E 023°34'4 7.8
2017-Oct-14 08:00N 37°51' E 023°31'0 0.7
2017-Oct-14 07:30N 37°50' E 023°31'0 0.0
2017-Oct-14 07:00N 37°50' E 023°31'0 0.0
2017-Oct-14 06:30N 37°50' E 023°31'0 0.8
2017-Oct-14 06:00N 37°51' E 023°31'4 8.2
2017-Oct-14 05:30N 37°54' E 023°34'4 7.6
2017-Oct-14 05:00N 37°57' E 023°37'0 0.0
2017-Oct-13 07:49N 37°57' E 023°37'0 0.0
2017-Oct-13 06:43N 37°57' E 023°37'0 0.0
2017-Oct-13 06:30N 37°57' E 023°37'0 0.0
2017-Oct-12 13:14N 37°57' E 023°37'1 4.7
2017-Oct-12 13:00N 37°57' E 023°35'4 8.4
2017-Oct-12 12:30N 37°54' E 023°32'2 4.6
2017-Oct-12 12:00N 37°52' E 023°30'0 0.0
2017-Oct-12 11:30N 37°52' E 023°30'0 0.2
2017-Oct-12 11:00N 37°52' E 023°30'0 0.4
2017-Oct-12 10:30N 37°52' E 023°29'0 0.2
2017-Oct-12 10:00N 37°52' E 023°30'1 2.4
2017-Oct-12 09:30N 37°52' E 023°31'1 2.5
2017-Oct-12 09:00N 37°53' E 023°32'4 7.2
2017-Oct-12 08:30N 37°56' E 023°35'2 4.0
2017-Oct-12 08:00N 37°57' E 023°37'0 0.0
2017-Oct-10 06:37N 37°57' E 023°37'0 0.0
2017-Oct-10 06:31N 37°57' E 023°37'0 0.0
2017-Oct-10 06:01N 37°57' E 023°37'  

Dump ship's entire track history